Weather at Geneina Airport

Public forecast

Using degrees Celsius for public forecast. Weather courtesy of forecast.io.

Closest aviation weather report (METAR) to Geneina Airport

Report is more than 6 hours old.

Closest report is Abeche Airport, 97.2 nm (180.0 km) WNW.

2022/11/14 14:00 (retrieved 2 years ago)

FTTC 141400Z 00000KT CAVOK 36/// Q1012

Closest aviation forecast (TAF) to Geneina Airport

Forecast is more than 12 hours old.

Closest forecast is N'Djamena International Airport, 442.6 nm (819.7 km) W.

2023/02/22 18:25 Correction (retrieved 1 year ago)

TAF COR FTTJ 221700Z 2218/2324 01006KT 6000 NSC TEMPO 2218/2221 4000 DU